Baltimore, Maryland
Traffic Map
Current Weather Conditions
Baltimore, Maryland
Broken Clouds
Broken Clouds
86°
Feels Like: 86°
Wind Chill: 86° Ceiling: 25000
Heat Index: 86° Visibility: 10mi
Dew Point: 50° Wind: 8mph
Humidity: 29% Direction: 300° (WNW)
Pressure: 30.1in Gusts: 17mph
Raw Report DataKBWI 252054Z 30007G15KT 10SM BKN250 30/10 A3010 RMK AO2 SLP192 T03000100 55006
Traffic Incident Summary
Active as of:
Severity:
Category:
InformationThere was an issue retrieving the traffic information for this location. Please try a different location or try again shortly.
Advertisements
Track Severe Weather on mobile